sensor_id;sensor_type;location;lat;lon;timestamp;temperature;humidity
74489;SHT31;62809;51.090;-115.358;2022-08-18T00:00:30;25.69;37.88
74489;SHT31;62809;51.090;-115.358;2022-08-18T00:03:01;25.72;37.85
74489;SHT31;62809;51.090;-115.358;2022-08-18T00:05:34;25.76;37.81
74489;SHT31;62809;51.090;-115.358;2022-08-18T00:08:04;25.79;37.80
74489;SHT31;62809;51.090;-115.358;2022-08-18T00:10:32;25.82;37.81
74489;SHT31;62809;51.090;-115.358;2022-08-18T00:13:00;25.84;37.76
74489;SHT31;62809;51.090;-115.358;2022-08-18T00:15:27;25.87;37.74
74489;SHT31;62809;51.090;-115.358;2022-08-18T00:17:56;25.90;37.73
74489;SHT31;62809;51.090;-115.358;2022-08-18T00:20:23;25.92;37.72
74489;SHT31;62809;51.090;-115.358;2022-08-18T00:22:51;25.93;37.73
74489;SHT31;62809;51.090;-115.358;2022-08-18T00:25:20;25.96;37.71
74489;SHT31;62809;51.090;-115.358;2022-08-18T00:27:48;25.97;37.72
74489;SHT31;62809;51.090;-115.358;2022-08-18T00:30:17;25.99;37.70
74489;SHT31;62809;51.090;-115.358;2022-08-18T00:32:49;26.00;37.72
74489;SHT31;62809;51.090;-115.358;2022-08-18T00:37:57;26.05;37.76
74489;SHT31;62809;51.090;-115.358;2022-08-18T00:40:28;26.05;37.75
74489;SHT31;62809;51.090;-115.358;2022-08-18T00:43:07;26.07;37.70
74489;SHT31;62809;51.090;-115.358;2022-08-18T00:45:45;26.08;37.73
74489;SHT31;62809;51.090;-115.358;2022-08-18T00:48:14;26.08;37.70
74489;SHT31;62809;51.090;-115.358;2022-08-18T00:50:44;26.11;37.71
74489;SHT31;62809;51.090;-115.358;2022-08-18T00:56:11;26.14;37.69
74489;SHT31;62809;51.090;-115.358;2022-08-18T00:58:51;26.16;37.70
74489;SHT31;62809;51.090;-115.358;2022-08-18T01:01:32;26.16;37.70
74489;SHT31;62809;51.090;-115.358;2022-08-18T01:04:04;26.18;37.70
74489;SHT31;62809;51.090;-115.358;2022-08-18T01:06:45;26.20;37.68
74489;SHT31;62809;51.090;-115.358;2022-08-18T01:09:19;26.23;37.63
74489;SHT31;62809;51.090;-115.358;2022-08-18T01:11:47;26.25;37.61
74489;SHT31;62809;51.090;-115.358;2022-08-18T01:14:15;26.27;37.60
74489;SHT31;62809;51.090;-115.358;2022-08-18T01:16:45;26.29;37.61
74489;SHT31;62809;51.090;-115.358;2022-08-18T01:19:34;26.31;37.57
74489;SHT31;62809;51.090;-115.358;2022-08-18T01:22:23;26.32;37.54
74489;SHT31;62809;51.090;-115.358;2022-08-18T01:25:03;26.32;37.52
74489;SHT31;62809;51.090;-115.358;2022-08-18T01:27:50;26.34;37.54
74489;SHT31;62809;51.090;-115.358;2022-08-18T01:30:21;26.34;37.50
74489;SHT31;62809;51.090;-115.358;2022-08-18T01:32:52;26.35;37.52
74489;SHT31;62809;51.090;-115.358;2022-08-18T01:35:23;26.35;37.51
74489;SHT31;62809;51.090;-115.358;2022-08-18T01:37:57;26.35;37.51
74489;SHT31;62809;51.090;-115.358;2022-08-18T01:40:25;26.35;37.55
74489;SHT31;62809;51.090;-115.358;2022-08-18T01:42:53;26.36;37.60
74489;SHT31;62809;51.090;-115.358;2022-08-18T01:45:23;26.38;37.55
74489;SHT31;62809;51.090;-115.358;2022-08-18T01:47:50;26.38;37.50
74489;SHT31;62809;51.090;-115.358;2022-08-18T01:50:18;26.37;37.47
74489;SHT31;62809;51.090;-115.358;2022-08-18T01:52:45;26.37;37.40
74489;SHT31;62809;51.090;-115.358;2022-08-18T01:55:16;26.38;37.41
74489;SHT31;62809;51.090;-115.358;2022-08-18T01:57:44;26.38;37.41
74489;SHT31;62809;51.090;-115.358;2022-08-18T02:00:13;26.40;37.41
74489;SHT31;62809;51.090;-115.358;2022-08-18T02:02:44;26.40;37.40
74489;SHT31;62809;51.090;-115.358;2022-08-18T02:05:17;26.41;37.40
74489;SHT31;62809;51.090;-115.358;2022-08-18T02:07:55;26.42;37.41
74489;SHT31;62809;51.090;-115.358;2022-08-18T02:10:23;26.43;37.40
74489;SHT31;62809;51.090;-115.358;2022-08-18T02:12:53;26.45;37.36
74489;SHT31;62809;51.090;-115.358;2022-08-18T02:15:22;26.47;37.32
74489;SHT31;62809;51.090;-115.358;2022-08-18T02:17:48;26.49;37.31
74489;SHT31;62809;51.090;-115.358;2022-08-18T02:20:17;26.50;37.30
74489;SHT31;62809;51.090;-115.358;2022-08-18T02:22:47;26.52;37.28
74489;SHT31;62809;51.090;-115.358;2022-08-18T02:25:15;26.53;37.24
74489;SHT31;62809;51.090;-115.358;2022-08-18T02:27:46;26.53;37.21
74489;SHT31;62809;51.090;-115.358;2022-08-18T02:30:15;26.54;37.21
74489;SHT31;62809;51.090;-115.358;2022-08-18T02:32:44;26.54;37.20
74489;SHT31;62809;51.090;-115.358;2022-08-18T02:35:11;26.54;37.20
74489;SHT31;62809;51.090;-115.358;2022-08-18T02:37:40;26.54;37.20
74489;SHT31;62809;51.090;-115.358;2022-08-18T02:40:12;26.53;37.19
74489;SHT31;62809;51.090;-115.358;2022-08-18T02:42:44;26.53;37.20
74489;SHT31;62809;51.090;-115.358;2022-08-18T02:45:17;26.53;37.20
74489;SHT31;62809;51.090;-115.358;2022-08-18T02:47:51;26.53;37.20
74489;SHT31;62809;51.090;-115.358;2022-08-18T02:50:20;26.52;37.20
74489;SHT31;62809;51.090;-115.358;2022-08-18T02:52:49;26.53;37.19
74489;SHT31;62809;51.090;-115.358;2022-08-18T02:55:18;26.51;37.20
74489;SHT31;62809;51.090;-115.358;2022-08-18T02:57:50;26.51;37.22
74489;SHT31;62809;51.090;-115.358;2022-08-18T03:00:29;26.51;37.21
74489;SHT31;62809;51.090;-115.358;2022-08-18T03:02:56;26.50;37.19
74489;SHT31;62809;51.090;-115.358;2022-08-18T03:05:23;26.50;37.17
74489;SHT31;62809;51.090;-115.358;2022-08-18T03:07:55;26.50;37.18
74489;SHT31;62809;51.090;-115.358;2022-08-18T03:10:26;26.49;37.12
74489;SHT31;62809;51.090;-115.358;2022-08-18T03:12:57;26.47;37.15
74489;SHT31;62809;51.090;-115.358;2022-08-18T03:15:27;26.46;37.17
74489;SHT31;62809;51.090;-115.358;2022-08-18T03:17:58;26.47;37.14
74489;SHT31;62809;51.090;-115.358;2022-08-18T03:20:27;26.45;37.15
74489;SHT31;62809;51.090;-115.358;2022-08-18T03:22:54;26.44;37.14
74489;SHT31;62809;51.090;-115.358;2022-08-18T03:25:21;26.44;37.12
74489;SHT31;62809;51.090;-115.358;2022-08-18T03:27:52;26.44;37.12
74489;SHT31;62809;51.090;-115.358;2022-08-18T03:30:22;26.44;37.12
74489;SHT31;62809;51.090;-115.358;2022-08-18T03:32:49;26.44;37.10
74489;SHT31;62809;51.090;-115.358;2022-08-18T03:35:17;26.45;37.10
74489;SHT31;62809;51.090;-115.358;2022-08-18T03:37:45;26.45;37.10
74489;SHT31;62809;51.090;-115.358;2022-08-18T03:40:14;26.46;37.09
74489;SHT31;62809;51.090;-115.358;2022-08-18T03:42:41;26.47;37.06
74489;SHT31;62809;51.090;-115.358;2022-08-18T03:45:08;26.46;37.02
74489;SHT31;62809;51.090;-115.358;2022-08-18T03:47:36;26.48;37.00
74489;SHT31;62809;51.090;-115.358;2022-08-18T03:50:07;26.49;37.00
74489;SHT31;62809;51.090;-115.358;2022-08-18T03:52:35;26.48;37.00
74489;SHT31;62809;51.090;-115.358;2022-08-18T03:55:03;26.47;37.00
74489;SHT31;62809;51.090;-115.358;2022-08-18T03:57:34;26.47;37.00
74489;SHT31;62809;51.090;-115.358;2022-08-18T04:00:03;26.46;37.00
74489;SHT31;62809;51.090;-115.358;2022-08-18T04:02:33;26.46;36.99
74489;SHT31;62809;51.090;-115.358;2022-08-18T04:05:01;26.45;36.98
74489;SHT31;62809;51.090;-115.358;2022-08-18T04:07:28;26.44;37.00
74489;SHT31;62809;51.090;-115.358;2022-08-18T04:09:56;26.43;36.99
74489;SHT31;62809;51.090;-115.358;2022-08-18T04:12:26;26.43;36.99
74489;SHT31;62809;51.090;-115.358;2022-08-18T04:14:53;26.42;37.00
74489;SHT31;62809;51.090;-115.358;2022-08-18T04:17:20;26.41;37.00
74489;SHT31;62809;51.090;-115.358;2022-08-18T04:19:53;26.39;37.00
74489;SHT31;62809;51.090;-115.358;2022-08-18T04:22:21;26.39;37.01
74489;SHT31;62809;51.090;-115.358;2022-08-18T04:24:50;26.38;37.00
74489;SHT31;62809;51.090;-115.358;2022-08-18T04:27:18;26.38;37.00
74489;SHT31;62809;51.090;-115.358;2022-08-18T04:29:50;26.37;37.00
74489;SHT31;62809;51.090;-115.358;2022-08-18T04:32:17;26.37;37.00
74489;SHT31;62809;51.090;-115.358;2022-08-18T04:34:50;26.37;37.00
74489;SHT31;62809;51.090;-115.358;2022-08-18T04:37:20;26.37;37.00
74489;SHT31;62809;51.090;-115.358;2022-08-18T04:39:48;26.36;37.00
74489;SHT31;62809;51.090;-115.358;2022-08-18T04:42:15;26.36;37.00
74489;SHT31;62809;51.090;-115.358;2022-08-18T04:44:43;26.35;37.00
74489;SHT31;62809;51.090;-115.358;2022-08-18T04:47:12;26.35;37.00
74489;SHT31;62809;51.090;-115.358;2022-08-18T04:49:48;26.34;37.00
74489;SHT31;62809;51.090;-115.358;2022-08-18T04:52:17;26.33;37.00
74489;SHT31;62809;51.090;-115.358;2022-08-18T04:55:03;26.33;37.01
74489;SHT31;62809;51.090;-115.358;2022-08-18T04:57:34;26.33;36.96
74489;SHT31;62809;51.090;-115.358;2022-08-18T05:00:03;26.33;37.00
74489;SHT31;62809;51.090;-115.358;2022-08-18T05:02:38;26.32;37.00
74489;SHT31;62809;51.090;-115.358;2022-08-18T05:05:06;26.30;37.00
74489;SHT31;62809;51.090;-115.358;2022-08-18T05:07:34;26.30;37.00
74489;SHT31;62809;51.090;-115.358;2022-08-18T05:10:02;26.29;37.00
74489;SHT31;62809;51.090;-115.358;2022-08-18T05:12:31;26.29;37.00
74489;SHT31;62809;51.090;-115.358;2022-08-18T05:15:01;26.28;37.00
74489;SHT31;62809;51.090;-115.358;2022-08-18T05:17:30;26.27;37.00
74489;SHT31;62809;51.090;-115.358;2022-08-18T05:19:58;26.28;37.00
74489;SHT31;62809;51.090;-115.358;2022-08-18T05:22:30;26.27;37.03
74489;SHT31;62809;51.090;-115.358;2022-08-18T05:25:08;26.27;37.01
74489;SHT31;62809;51.090;-115.358;2022-08-18T05:27:38;26.26;37.01
74489;SHT31;62809;51.090;-115.358;2022-08-18T05:30:11;26.27;37.00
74489;SHT31;62809;51.090;-115.358;2022-08-18T05:32:40;26.27;37.03
74489;SHT31;62809;51.090;-115.358;2022-08-18T05:35:12;26.27;37.01
74489;SHT31;62809;51.090;-115.358;2022-08-18T05:37:52;26.26;37.02
74489;SHT31;62809;51.090;-115.358;2022-08-18T05:40:30;26.25;37.00
74489;SHT31;62809;51.090;-115.358;2022-08-18T05:43:02;26.25;37.01
74489;SHT31;62809;51.090;-115.358;2022-08-18T05:45:32;26.24;37.01
74489;SHT31;62809;51.090;-115.358;2022-08-18T05:48:00;26.23;37.03
74489;SHT31;62809;51.090;-115.358;2022-08-18T05:50:31;26.23;37.03
74489;SHT31;62809;51.090;-115.358;2022-08-18T05:53:13;26.23;37.07
74489;SHT31;62809;51.090;-115.358;2022-08-18T05:58:44;26.20;37.10
74489;SHT31;62809;51.090;-115.358;2022-08-18T06:01:21;26.20;37.10
74489;SHT31;62809;51.090;-115.358;2022-08-18T06:03:56;26.20;37.10
74489;SHT31;62809;51.090;-115.358;2022-08-18T06:06:34;26.19;37.10
74489;SHT31;62809;51.090;-115.358;2022-08-18T06:09:07;26.18;37.12
74489;SHT31;62809;51.090;-115.358;2022-08-18T06:11:45;26.18;37.14
74489;SHT31;62809;51.090;-115.358;2022-08-18T06:14:14;26.17;37.16
74489;SHT31;62809;51.090;-115.358;2022-08-18T06:22:54;26.14;37.20
74489;SHT31;62809;51.090;-115.358;2022-08-18T06:28:05;26.13;37.20
74489;SHT31;62809;51.090;-115.358;2022-08-18T06:33:41;26.11;37.25
74489;SHT31;62809;51.090;-115.358;2022-08-18T06:36:21;26.12;37.25
74489;SHT31;62809;51.090;-115.358;2022-08-18T06:42:07;26.11;37.27
74489;SHT31;62809;51.090;-115.358;2022-08-18T06:44:36;26.11;37.29
74489;SHT31;62809;51.090;-115.358;2022-08-18T06:47:24;26.12;37.27
74489;SHT31;62809;51.090;-115.358;2022-08-18T06:53:03;26.11;37.25
74489;SHT31;62809;51.090;-115.358;2022-08-18T06:55:43;26.11;37.26
74489;SHT31;62809;51.090;-115.358;2022-08-18T07:00:53;26.08;37.27
74489;SHT31;62809;51.090;-115.358;2022-08-18T07:08:51;26.07;37.29
74489;SHT31;62809;51.090;-115.358;2022-08-18T07:11:28;26.06;37.30
74489;SHT31;62809;51.090;-115.358;2022-08-18T07:16:45;26.05;37.30
74489;SHT31;62809;51.090;-115.358;2022-08-18T07:19:14;26.04;37.30
74489;SHT31;62809;51.090;-115.358;2022-08-18T07:22:00;26.03;37.30
74489;SHT31;62809;51.090;-115.358;2022-08-18T07:24:40;26.04;37.34
74489;SHT31;62809;51.090;-115.358;2022-08-18T07:27:15;26.02;37.34
74489;SHT31;62809;51.090;-115.358;2022-08-18T07:30:01;26.02;37.33
74489;SHT31;62809;51.090;-115.358;2022-08-18T07:33:01;26.01;37.36
74489;SHT31;62809;51.090;-115.358;2022-08-18T07:35:42;26.00;37.39
74489;SHT31;62809;51.090;-115.358;2022-08-18T07:40:54;25.99;37.40
74489;SHT31;62809;51.090;-115.358;2022-08-18T07:43:32;25.99;37.38
74489;SHT31;62809;51.090;-115.358;2022-08-18T07:46:26;25.98;37.40
74489;SHT31;62809;51.090;-115.358;2022-08-18T07:49:01;25.97;37.40
74489;SHT31;62809;51.090;-115.358;2022-08-18T07:51:33;25.98;37.40
74489;SHT31;62809;51.090;-115.358;2022-08-18T08:05:18;25.95;37.40
74489;SHT31;62809;51.090;-115.358;2022-08-18T08:20:16;25.91;37.48
74489;SHT31;62809;51.090;-115.358;2022-08-18T08:34:26;25.89;37.50
74489;SHT31;62809;51.090;-115.358;2022-08-18T08:37:17;25.88;37.50
74489;SHT31;62809;51.090;-115.358;2022-08-18T08:45:41;25.86;37.50
74489;SHT31;62809;51.090;-115.358;2022-08-18T08:48:28;25.86;37.50
74489;SHT31;62809;51.090;-115.358;2022-08-18T08:51:10;25.84;37.50
74489;SHT31;62809;51.090;-115.358;2022-08-18T08:54:24;25.83;37.50
74489;SHT31;62809;51.090;-115.358;2022-08-18T08:57:04;25.83;37.50
74489;SHT31;62809;51.090;-115.358;2022-08-18T08:59:33;25.82;37.51
74489;SHT31;62809;51.090;-115.358;2022-08-18T09:05:06;25.80;37.50
74489;SHT31;62809;51.090;-115.358;2022-08-18T09:11:02;25.77;37.50
74489;SHT31;62809;51.090;-115.358;2022-08-18T09:14:06;25.77;37.50
74489;SHT31;62809;51.090;-115.358;2022-08-18T09:19:41;25.74;37.50
74489;SHT31;62809;51.090;-115.358;2022-08-18T09:25:09;25.71;37.51
74489;SHT31;62809;51.090;-115.358;2022-08-18T09:42:27;25.64;37.46
74489;SHT31;62809;51.090;-115.358;2022-08-18T09:45:39;25.62;37.49
74489;SHT31;62809;51.090;-115.358;2022-08-18T09:48:22;25.60;37.49
74489;SHT31;62809;51.090;-115.358;2022-08-18T09:56:13;25.57;37.45
74489;SHT31;62809;51.090;-115.358;2022-08-18T09:59:02;25.57;37.47
74489;SHT31;62809;51.090;-115.358;2022-08-18T10:06:45;25.54;37.44
74489;SHT31;62809;51.090;-115.358;2022-08-18T10:14:55;25.50;37.43
74489;SHT31;62809;51.090;-115.358;2022-08-18T10:20:22;25.46;37.42
74489;SHT31;62809;51.090;-115.358;2022-08-18T10:23:39;25.44;37.44
74489;SHT31;62809;51.090;-115.358;2022-08-18T10:45:37;25.36;37.40
74489;SHT31;62809;51.090;-115.358;2022-08-18T10:48:27;25.34;37.38
74489;SHT31;62809;51.090;-115.358;2022-08-18T10:56:34;25.31;37.39
74489;SHT31;62809;51.090;-115.358;2022-08-18T11:05:02;25.27;37.37
74489;SHT31;62809;51.090;-115.358;2022-08-18T11:07:34;25.26;37.33
74489;SHT31;62809;51.090;-115.358;2022-08-18T11:10:16;25.25;37.34
74489;SHT31;62809;51.090;-115.358;2022-08-18T11:16:02;25.22;37.31
74489;SHT31;62809;51.090;-115.358;2022-08-18T11:19:08;25.20;37.30
74489;SHT31;62809;51.090;-115.358;2022-08-18T11:21:41;25.18;37.30
74489;SHT31;62809;51.090;-115.358;2022-08-18T11:24:21;25.18;37.31
74489;SHT31;62809;51.090;-115.358;2022-08-18T11:26:57;25.17;37.29
74489;SHT31;62809;51.090;-115.358;2022-08-18T11:35:00;25.13;37.24
74489;SHT31;62809;51.090;-115.358;2022-08-18T11:42:53;25.09;37.24
74489;SHT31;62809;51.090;-115.358;2022-08-18T11:45:30;25.08;37.21
74489;SHT31;62809;51.090;-115.358;2022-08-18T11:48:20;25.07;37.22
74489;SHT31;62809;51.090;-115.358;2022-08-18T11:51:16;25.06;37.21
74489;SHT31;62809;51.090;-115.358;2022-08-18T12:06:11;24.98;37.20
74489;SHT31;62809;51.090;-115.358;2022-08-18T12:08:53;24.96;37.19
74489;SHT31;62809;51.090;-115.358;2022-08-18T12:11:48;24.95;37.20
74489;SHT31;62809;51.090;-115.358;2022-08-18T12:14:27;24.93;37.20
74489;SHT31;62809;51.090;-115.358;2022-08-18T12:16:57;24.92;37.20
74489;SHT31;62809;51.090;-115.358;2022-08-18T12:19:27;24.91;37.14
74489;SHT31;62809;51.090;-115.358;2022-08-18T12:21:58;24.90;37.19
74489;SHT31;62809;51.090;-115.358;2022-08-18T12:24:37;24.89;37.18
74489;SHT31;62809;51.090;-115.358;2022-08-18T12:27:06;24.88;37.16
74489;SHT31;62809;51.090;-115.358;2022-08-18T12:29:34;24.87;37.12
74489;SHT31;62809;51.090;-115.358;2022-08-18T12:32:03;24.86;37.12
74489;SHT31;62809;51.090;-115.358;2022-08-18T12:34:34;24.85;37.12
74489;SHT31;62809;51.090;-115.358;2022-08-18T12:37:03;24.84;37.10
74489;SHT31;62809;51.090;-115.358;2022-08-18T12:39:35;24.82;37.11
74489;SHT31;62809;51.090;-115.358;2022-08-18T12:42:03;24.81;37.10
74489;SHT31;62809;51.090;-115.358;2022-08-18T12:44:31;24.79;37.10
74489;SHT31;62809;51.090;-115.358;2022-08-18T12:47:01;24.77;37.09
74489;SHT31;62809;51.090;-115.358;2022-08-18T12:49:35;24.76;37.09
74489;SHT31;62809;51.090;-115.358;2022-08-18T12:52:05;24.75;37.09
74489;SHT31;62809;51.090;-115.358;2022-08-18T12:54:33;24.74;37.06
74489;SHT31;62809;51.090;-115.358;2022-08-18T12:57:01;24.73;37.06
74489;SHT31;62809;51.090;-115.358;2022-08-18T12:59:36;24.72;37.04
74489;SHT31;62809;51.090;-115.358;2022-08-18T13:02:06;24.71;37.01
74489;SHT31;62809;51.090;-115.358;2022-08-18T13:04:35;24.71;37.02
74489;SHT31;62809;51.090;-115.358;2022-08-18T13:07:09;24.70;37.00
74489;SHT31;62809;51.090;-115.358;2022-08-18T13:09:39;24.68;37.00
74489;SHT31;62809;51.090;-115.358;2022-08-18T13:12:10;24.67;36.98
74489;SHT31;62809;51.090;-115.358;2022-08-18T13:14:38;24.67;37.00
74489;SHT31;62809;51.090;-115.358;2022-08-18T13:17:05;24.66;36.99
74489;SHT31;62809;51.090;-115.358;2022-08-18T13:19:36;24.65;36.99
74489;SHT31;62809;51.090;-115.358;2022-08-18T13:22:04;24.64;37.00
74489;SHT31;62809;51.090;-115.358;2022-08-18T13:24:32;24.63;36.99
74489;SHT31;62809;51.090;-115.358;2022-08-18T13:27:02;24.61;36.99
74489;SHT31;62809;51.090;-115.358;2022-08-18T13:29:29;24.60;36.99
74489;SHT31;62809;51.090;-115.358;2022-08-18T13:31:57;24.59;37.00
74489;SHT31;62809;51.090;-115.358;2022-08-18T13:34:33;24.57;36.99
74489;SHT31;62809;51.090;-115.358;2022-08-18T13:37:02;24.55;37.00
74489;SHT31;62809;51.090;-115.358;2022-08-18T13:39:31;24.54;37.00
74489;SHT31;62809;51.090;-115.358;2022-08-18T13:41:58;24.53;37.00
74489;SHT31;62809;51.090;-115.358;2022-08-18T13:44:28;24.52;37.00
74489;SHT31;62809;51.090;-115.358;2022-08-18T13:46:56;24.50;37.03
74489;SHT31;62809;51.090;-115.358;2022-08-18T13:49:26;24.49;37.02
74489;SHT31;62809;51.090;-115.358;2022-08-18T13:51:56;24.48;37.02
74489;SHT31;62809;51.090;-115.358;2022-08-18T13:54:25;24.46;37.07
74489;SHT31;62809;51.090;-115.358;2022-08-18T13:56:57;24.44;37.07
74489;SHT31;62809;51.090;-115.358;2022-08-18T13:59:25;24.42;37.07
74489;SHT31;62809;51.090;-115.358;2022-08-18T14:01:56;24.42;37.09
74489;SHT31;62809;51.090;-115.358;2022-08-18T14:04:26;24.40;37.09
74489;SHT31;62809;51.090;-115.358;2022-08-18T14:06:54;24.40;37.09
74489;SHT31;62809;51.090;-115.358;2022-08-18T14:09:21;24.40;37.10
74489;SHT31;62809;51.090;-115.358;2022-08-18T14:11:49;24.40;37.09
74489;SHT31;62809;51.090;-115.358;2022-08-18T14:14:17;24.39;37.13
74489;SHT31;62809;51.090;-115.358;2022-08-18T14:16:46;24.38;37.11
74489;SHT31;62809;51.090;-115.358;2022-08-18T14:19:15;24.37;37.10
74489;SHT31;62809;51.090;-115.358;2022-08-18T14:22:00;24.36;37.13
74489;SHT31;62809;51.090;-115.358;2022-08-18T14:24:46;24.34;37.14
74489;SHT31;62809;51.090;-115.358;2022-08-18T14:27:33;24.33;37.19
74489;SHT31;62809;51.090;-115.358;2022-08-18T14:30:05;24.32;37.20
74489;SHT31;62809;51.090;-115.358;2022-08-18T14:32:40;24.31;37.20
74489;SHT31;62809;51.090;-115.358;2022-08-18T14:35:09;24.28;37.27
74489;SHT31;62809;51.090;-115.358;2022-08-18T14:37:43;24.27;37.28
74489;SHT31;62809;51.090;-115.358;2022-08-18T14:40:12;24.26;37.29
74489;SHT31;62809;51.090;-115.358;2022-08-18T14:42:39;24.25;37.30
74489;SHT31;62809;51.090;-115.358;2022-08-18T14:45:09;24.23;37.37
74489;SHT31;62809;51.090;-115.358;2022-08-18T14:47:40;24.22;37.38
74489;SHT31;62809;51.090;-115.358;2022-08-18T14:50:08;24.20;37.40
74489;SHT31;62809;51.090;-115.358;2022-08-18T14:52:38;24.20;37.43
74489;SHT31;62809;51.090;-115.358;2022-08-18T14:55:07;24.18;37.47
74489;SHT31;62809;51.090;-115.358;2022-08-18T14:57:37;24.17;37.50
74489;SHT31;62809;51.090;-115.358;2022-08-18T15:00:05;24.16;37.50
74489;SHT31;62809;51.090;-115.358;2022-08-18T15:02:39;24.15;37.57
74489;SHT31;62809;51.090;-115.358;2022-08-18T15:05:10;24.15;37.60
74489;SHT31;62809;51.090;-115.358;2022-08-18T15:07:38;24.15;37.60
74489;SHT31;62809;51.090;-115.358;2022-08-18T15:10:07;24.15;37.63
74489;SHT31;62809;51.090;-115.358;2022-08-18T15:12:38;24.15;37.69
74489;SHT31;62809;51.090;-115.358;2022-08-18T15:15:09;24.15;37.71
74489;SHT31;62809;51.090;-115.358;2022-08-18T15:17:46;24.15;37.75
74489;SHT31;62809;51.090;-115.358;2022-08-18T15:20:13;24.15;37.80
74489;SHT31;62809;51.090;-115.358;2022-08-18T15:22:41;24.15;37.84
74489;SHT31;62809;51.090;-115.358;2022-08-18T15:25:29;24.15;37.89
74489;SHT31;62809;51.090;-115.358;2022-08-18T15:28:17;24.15;37.94
74489;SHT31;62809;51.090;-115.358;2022-08-18T15:30:51;24.15;38.00
74489;SHT31;62809;51.090;-115.358;2022-08-18T15:33:19;24.15;38.00
74489;SHT31;62809;51.090;-115.358;2022-08-18T15:35:51;24.15;38.06
74489;SHT31;62809;51.090;-115.358;2022-08-18T15:38:19;24.16;38.10
74489;SHT31;62809;51.090;-115.358;2022-08-18T15:40:53;24.17;38.11
74489;SHT31;62809;51.090;-115.358;2022-08-18T15:43:29;24.17;38.10
74489;SHT31;62809;51.090;-115.358;2022-08-18T15:45:59;24.17;38.16
74489;SHT31;62809;51.090;-115.358;2022-08-18T15:48:28;24.18;38.14
74489;SHT31;62809;51.090;-115.358;2022-08-18T15:50:55;24.19;38.15
74489;SHT31;62809;51.090;-115.358;2022-08-18T15:53:25;24.20;38.22
74489;SHT31;62809;51.090;-115.358;2022-08-18T15:55:53;24.20;38.26
74489;SHT31;62809;51.090;-115.358;2022-08-18T15:58:20;24.21;38.29
74489;SHT31;62809;51.090;-115.358;2022-08-18T16:00:47;24.22;38.30
74489;SHT31;62809;51.090;-115.358;2022-08-18T16:03:14;24.24;38.31
74489;SHT31;62809;51.090;-115.358;2022-08-18T16:05:47;24.25;38.32
74489;SHT31;62809;51.090;-115.358;2022-08-18T16:08:20;24.25;38.38
74489;SHT31;62809;51.090;-115.358;2022-08-18T16:10:49;24.26;38.37
74489;SHT31;62809;51.090;-115.358;2022-08-18T16:13:21;24.26;38.41
74489;SHT31;62809;51.090;-115.358;2022-08-18T16:15:53;24.27;38.44
74489;SHT31;62809;51.090;-115.358;2022-08-18T16:18:21;24.29;38.47
74489;SHT31;62809;51.090;-115.358;2022-08-18T16:20:48;24.30;38.48
74489;SHT31;62809;51.090;-115.358;2022-08-18T16:23:15;24.30;38.30
74489;SHT31;62809;51.090;-115.358;2022-08-18T16:25:42;24.26;38.08
74489;SHT31;62809;51.090;-115.358;2022-08-18T16:28:10;24.23;37.86
74489;SHT31;62809;51.090;-115.358;2022-08-18T16:30:37;24.19;37.62
74489;SHT31;62809;51.090;-115.358;2022-08-18T16:33:06;24.15;37.46
74489;SHT31;62809;51.090;-115.358;2022-08-18T16:35:34;24.13;37.26
74489;SHT31;62809;51.090;-115.358;2022-08-18T16:38:06;24.10;37.07
74489;SHT31;62809;51.090;-115.358;2022-08-18T16:40:36;24.06;36.93
74489;SHT31;62809;51.090;-115.358;2022-08-18T16:43:05;24.03;36.75
74489;SHT31;62809;51.090;-115.358;2022-08-18T16:45:35;23.99;36.63
74489;SHT31;62809;51.090;-115.358;2022-08-18T16:48:04;23.96;36.54
74489;SHT31;62809;51.090;-115.358;2022-08-18T16:50:32;23.90;36.40
74489;SHT31;62809;51.090;-115.358;2022-08-18T16:53:02;23.86;36.33
74489;SHT31;62809;51.090;-115.358;2022-08-18T16:55:31;23.85;36.23
74489;SHT31;62809;51.090;-115.358;2022-08-18T16:58:00;23.82;36.14
74489;SHT31;62809;51.090;-115.358;2022-08-18T17:00:48;23.78;36.04
74489;SHT31;62809;51.090;-115.358;2022-08-18T17:03:35;23.75;35.97
74489;SHT31;62809;51.090;-115.358;2022-08-18T17:06:20;23.71;35.91
74489;SHT31;62809;51.090;-115.358;2022-08-18T17:08:49;23.68;35.83
74489;SHT31;62809;51.090;-115.358;2022-08-18T17:11:17;23.66;35.79
74489;SHT31;62809;51.090;-115.358;2022-08-18T17:13:45;23.63;35.72
74489;SHT31;62809;51.090;-115.358;2022-08-18T17:16:15;23.61;35.66
74489;SHT31;62809;51.090;-115.358;2022-08-18T17:18:44;23.60;35.61
74489;SHT31;62809;51.090;-115.358;2022-08-18T17:21:13;23.57;35.57
74489;SHT31;62809;51.090;-115.358;2022-08-18T17:23:46;23.56;35.52
74489;SHT31;62809;51.090;-115.358;2022-08-18T17:29:05;23.53;35.40
74489;SHT31;62809;51.090;-115.358;2022-08-18T17:32:23;23.51;35.39
74489;SHT31;62809;51.090;-115.358;2022-08-18T17:35:10;23.49;35.31
74489;SHT31;62809;51.090;-115.358;2022-08-18T17:37:53;23.49;35.30
74489;SHT31;62809;51.090;-115.358;2022-08-18T17:40:39;23.47;35.29
74489;SHT31;62809;51.090;-115.358;2022-08-18T17:43:15;23.47;35.20
74489;SHT31;62809;51.090;-115.358;2022-08-18T17:45:47;23.46;35.20
74489;SHT31;62809;51.090;-115.358;2022-08-18T17:51:09;23.43;35.17
74489;SHT31;62809;51.090;-115.358;2022-08-18T17:57:05;23.39;35.10
74489;SHT31;62809;51.090;-115.358;2022-08-18T18:02:15;23.34;35.10
74489;SHT31;62809;51.090;-115.358;2022-08-18T18:04:48;23.33;35.10
74489;SHT31;62809;51.090;-115.358;2022-08-18T18:07:26;23.31;35.10
74489;SHT31;62809;51.090;-115.358;2022-08-18T18:10:27;23.28;35.11
74489;SHT31;62809;51.090;-115.358;2022-08-18T18:15:58;23.25;36.11
74489;SHT31;62809;51.090;-115.358;2022-08-18T18:18:45;23.27;36.86
74489;SHT31;62809;51.090;-115.358;2022-08-18T18:21:26;23.30;37.63
74489;SHT31;62809;51.090;-115.358;2022-08-18T18:26:35;23.38;38.38
74489;SHT31;62809;51.090;-115.358;2022-08-18T18:31:40;23.49;38.59
74489;SHT31;62809;51.090;-115.358;2022-08-18T18:34:27;23.55;38.74
74489;SHT31;62809;51.090;-115.358;2022-08-18T18:37:24;23.59;38.70
74489;SHT31;62809;51.090;-115.358;2022-08-18T18:40:03;23.63;38.40
74489;SHT31;62809;51.090;-115.358;2022-08-18T18:42:43;23.64;38.25
74489;SHT31;62809;51.090;-115.358;2022-08-18T18:45:23;23.64;38.49
74489;SHT31;62809;51.090;-115.358;2022-08-18T18:56:32;23.83;38.53